Time;durP1;ratioP1;P1;durP2;ratioP2;P2;SDS_P1;SDS_P2;PMS_P1;PMS_P2;Temp;Humidity;BMP_temperature;BMP_pressure;BME280_temperature;BME280_humidity;BME280_pressure;Samples;Min_cycle;Max_cycle;Signal;HPM_P1;HPM_P2
2022/01/28 00:01:58;;;;;;;9.07;6.00;;;;;;;2.28;99.16;96597.63;5010661;28;20383;-44
2022/01/28 00:04:27;;;;;;;10.15;5.53;;;;;;;2.18;100.00;96605.56;5011996;28;20054;-43
2022/01/28 00:06:54;;;;;;;10.35;6.07;;;;;;;2.28;100.00;96610.97;4994226;28;20049;-43
2022/01/28 00:09:20;;;;;;;8.30;5.88;;;;;;;2.38;99.12;96605.66;5009210;28;20038;-44
2022/01/28 00:11:48;;;;;;;9.85;5.53;;;;;;;2.29;99.31;96605.34;5011873;28;20056;-44
2022/01/28 00:17:16;;;;;;;9.05;6.10;;;;;;;2.43;97.64;96626.22;5005198;28;20124;-44
2022/01/28 00:20:10;;;;;;;10.13;6.13;;;;;;;2.40;97.76;96621.41;5010780;28;20046;-47
2022/01/28 00:38:52;;;;;;;8.95;6.15;;;;;;;2.20;98.38;96620.28;5011324;28;20042;-42
2022/01/28 00:41:19;;;;;;;8.32;5.25;;;;;;;2.09;99.69;96624.78;5001484;28;20539;-43
2022/01/28 00:43:46;;;;;;;9.30;6.22;;;;;;;2.20;98.54;96630.16;5011498;28;21748;-42
2022/01/28 00:46:13;;;;;;;9.20;5.80;;;;;;;2.26;98.33;96634.44;4993299;28;20145;-42
2022/01/28 00:48:40;;;;;;;9.57;5.95;;;;;;;2.17;99.34;96636.81;5004208;28;20034;-43
2022/01/28 00:51:07;;;;;;;9.98;5.65;;;;;;;2.05;100.00;96633.56;5009427;22;20052;-47
2022/01/28 00:53:34;;;;;;;8.38;5.68;;;;;;;2.09;99.68;96642.66;5011272;28;20423;-51
2022/01/28 00:56:01;;;;;;;9.27;5.60;;;;;;;1.99;100.00;96643.41;5014596;28;20096;-50
2022/01/28 00:58:31;;;;;;;8.65;5.65;;;;;;;2.02;100.00;96650.91;4996932;28;20241;-46
2022/01/28 01:00:58;;;;;;;9.77;6.18;;;;;;;2.02;99.26;96647.44;5014303;28;20041;-47
2022/01/28 01:03:25;;;;;;;8.32;5.70;;;;;;;1.82;100.00;96651.63;5013182;28;20068;-48
2022/01/28 01:05:51;;;;;;;7.97;4.85;;;;;;;1.62;100.00;96646.94;4998599;28;20129;-45
2022/01/28 01:08:18;;;;;;;8.40;5.38;;;;;;;1.75;100.00;96652.88;4981542;28;20041;-49
2022/01/28 01:10:46;;;;;;;10.05;5.82;;;;;;;1.63;100.00;96651.22;5004694;28;20046;-46
2022/01/28 01:13:13;;;;;;;9.57;6.20;;;;;;;1.81;99.16;96651.84;5014204;28;20046;-47
2022/01/28 01:15:44;;;;;;;10.77;6.80;;;;;;;1.75;99.06;96660.88;5014178;28;21366;-46
2022/01/28 01:20:55;;;;;;;11.40;7.13;;;;;;;1.64;99.25;96670.69;5013651;28;20521;-46
2022/01/28 01:23:29;;;;;;;9.73;6.07;;;;;;;1.37;100.00;96682.25;5011608;28;20042;-46
2022/01/28 01:26:06;;;;;;;11.18;6.43;;;;;;;1.56;99.98;96681.84;5014118;28;20483;-46
2022/01/28 01:28:37;;;;;;;12.20;7.63;;;;;;;1.56;99.41;96679.16;5013294;28;20121;-47
2022/01/28 01:31:06;;;;;;;11.05;7.38;;;;;;;1.62;99.12;96678.13;4979413;28;20117;-49
2022/01/28 01:33:40;;;;;;;10.35;6.18;;;;;;;1.39;100.00;96679.31;5007590;28;20065;-50
2022/01/28 01:36:07;;;;;;;14.60;7.85;;;;;;;1.48;99.59;96671.66;5013917;28;20697;-47
2022/01/28 01:38:37;;;;;;;14.38;8.90;;;;;;;1.44;99.76;96681.22;5010893;28;20046;-46
2022/01/28 01:41:10;;;;;;;11.38;6.72;;;;;;;1.46;99.77;96676.44;4997340;28;20053;-49
2022/01/28 01:43:57;;;;;;;13.27;7.25;;;;;;;1.52;98.73;96670.88;5013399;28;20052;-46
2022/01/28 01:52:05;;;;;;;11.10;6.57;;;;;;;1.23;99.50;96683.72;5013147;28;20073;-47
2022/01/28 01:54:41;;;;;;;11.98;6.97;;;;;;;1.25;98.87;96678.94;5004529;28;20038;-47
2022/01/28 01:57:11;;;;;;;13.95;8.15;;;;;;;1.26;98.93;96685.06;5013296;28;20412;-48
2022/01/28 01:59:40;;;;;;;13.20;6.50;;;;;;;1.21;99.15;96687.72;5013316;28;20414;-46
2022/01/28 02:02:07;;;;;;;11.20;7.03;;;;;;;1.18;99.09;96707.69;5011752;28;20050;-47
2022/01/28 02:04:35;;;;;;;11.35;6.28;;;;;;;1.07;99.13;96708.63;5013065;28;20046;-47
2022/01/28 02:07:04;;;;;;;10.93;5.47;;;;;;;0.97;99.66;96713.84;5012784;28;20408;-48
2022/01/28 02:09:31;;;;;;;11.15;6.43;;;;;;;1.15;98.72;96714.31;5011456;28;20447;-48
2022/01/28 02:11:58;;;;;;;10.13;5.55;;;;;;;1.11;98.13;96705.22;5005507;28;20049;-47
2022/01/28 02:14:25;;;;;;;12.98;8.32;;;;;;;1.28;97.42;96715.75;5013003;28;20060;-47
2022/01/28 02:16:52;;;;;;;12.07;7.47;;;;;;;1.28;97.11;96713.09;5011804;28;20048;-46
2022/01/28 02:19:19;;;;;;;11.07;6.72;;;;;;;1.22;97.27;96708.78;5011194;28;20065;-46
2022/01/28 02:21:50;;;;;;;11.60;6.80;;;;;;;1.28;96.78;96718.41;5012604;28;20060;-48
2022/01/28 02:24:40;;;;;;;12.20;6.85;;;;;;;1.28;96.72;96730.94;5012054;28;20045;-46
2022/01/28 02:27:09;;;;;;;11.82;7.07;;;;;;;1.39;95.61;96725.44;5012842;28;20052;-49
2022/01/28 02:29:37;;;;;;;12.88;7.18;;;;;;;1.41;95.62;96719.88;5012225;28;20041;-50
2022/01/28 02:32:07;;;;;;;13.05;7.18;;;;;;;1.27;96.59;96724.00;5002226;28;20050;-52
2022/01/28 02:34:36;;;;;;;13.43;7.00;;;;;;;1.41;96.63;96733.19;5012201;28;20501;-50
2022/01/28 02:37:04;;;;;;;10.88;6.35;;;;;;;1.40;95.99;96732.41;5012020;28;20052;-50
2022/01/28 02:39:32;;;;;;;11.68;7.28;;;;;;;1.46;95.70;96735.09;5009927;28;20042;-51
2022/01/28 02:42:11;;;;;;;12.35;7.63;;;;;;;1.34;95.65;96725.41;5002262;28;20137;-50
2022/01/28 02:44:49;;;;;;;12.70;6.63;;;;;;;1.45;95.88;96736.97;5012347;28;20380;-46
2022/01/28 02:47:28;;;;;;;9.25;5.95;;;;;;;1.56;95.17;96748.50;5012353;28;20046;-44
2022/01/28 02:49:55;;;;;;;11.60;5.30;;;;;;;1.44;95.75;96751.34;5008201;28;20391;-45
2022/01/28 02:52:32;;;;;;;10.00;6.10;;;;;;;1.58;95.20;96749.88;5010626;28;20042;-46
2022/01/28 02:55:00;;;;;;;9.85;6.60;;;;;;;1.72;94.29;96763.56;5011828;28;20081;-47
2022/01/28 02:57:27;;;;;;;11.45;7.38;;;;;;;1.70;93.98;96754.25;5012609;28;20423;-49
2022/01/28 02:59:54;;;;;;;10.23;5.75;;;;;;;1.58;93.85;96725.88;5011863;28;20129;-45
2022/01/28 03:02:21;;;;;;;10.30;6.63;;;;;;;1.71;93.66;96747.84;4979634;28;20061;-47
2022/01/28 03:07:25;;;;;;;13.70;6.85;;;;;;;1.90;93.07;96759.72;5001794;28;20042;-45
2022/01/28 03:10:25;;;;;;;11.48;6.30;;;;;;;1.79;93.25;96763.38;5011540;28;20042;-47
2022/01/28 03:15:26;;;;;;;12.40;6.25;;;;;;;1.67;94.04;96755.56;5014306;28;20041;-47
2022/01/28 03:18:06;;;;;;;10.95;6.15;;;;;;;1.82;94.08;96757.50;5015029;28;20046;-48
2022/01/28 03:21:20;;;;;;;10.13;6.55;;;;;;;1.44;96.13;96759.34;5010439;28;20488;-47
2022/01/28 03:23:24;;;;;;;10.43;6.55;;;;;;;1.76;94.72;96755.88;5005203;28;20042;-46
2022/01/28 03:25:50;;;;;;;11.32;6.43;;;;;;;1.84;93.99;96758.06;5014239;28;20132;-50
2022/01/28 03:28:20;;;;;;;11.43;6.28;;;;;;;1.90;93.35;96765.06;5014322;28;20100;-46
2022/01/28 03:30:47;;;;;;;10.05;6.20;;;;;;;1.53;94.85;96768.50;5012546;28;20040;-47
2022/01/28 03:33:14;;;;;;;12.25;6.25;;;;;;;1.81;94.20;96762.03;5014088;28;20042;-47
2022/01/28 03:35:41;;;;;;;11.30;6.22;;;;;;;1.82;93.85;96782.34;5014780;28;20058;-46
2022/01/28 03:38:12;;;;;;;9.50;5.80;;;;;;;1.75;94.58;96780.94;5013645;28;20041;-47
2022/01/28 03:40:41;;;;;;;11.43;7.07;;;;;;;1.64;95.10;96786.19;4995876;28;20048;-48
2022/01/28 03:43:09;;;;;;;9.82;6.22;;;;;;;1.82;93.98;96792.19;4996723;28;20569;-50
2022/01/28 03:45:36;;;;;;;12.68;6.38;;;;;;;1.83;94.04;96794.63;4981350;28;20419;-46
2022/01/28 03:48:03;;;;;;;11.68;6.50;;;;;;;1.89;93.70;96800.00;5012435;28;20042;-45
2022/01/28 03:50:34;;;;;;;12.80;6.38;;;;;;;1.77;94.52;96800.97;4994670;28;20038;-52
2022/01/28 03:53:02;;;;;;;9.85;5.50;;;;;;;1.71;94.94;96796.66;5008287;28;20046;-49
2022/01/28 03:55:30;;;;;;;12.38;6.13;;;;;;;1.76;94.20;96779.91;5011150;28;20458;-47
2022/01/28 03:57:57;;;;;;;10.70;6.53;;;;;;;1.95;93.15;96793.63;5010943;28;20121;-47
2022/01/28 04:00:27;;;;;;;10.85;5.40;;;;;;;1.67;93.29;96779.56;5010234;28;20495;-46
2022/01/28 04:13:31;;;;;;;9.45;5.72;;;;;;;1.75;92.85;96804.94;5010047;28;20480;-46
2022/01/28 04:18:44;;;;;;;9.73;5.03;;;;;;;1.63;93.63;96813.13;4997126;28;20467;-56
2022/01/28 04:21:11;;;;;;;10.60;7.07;;;;;;;1.74;93.40;96808.69;5011889;28;20462;-48
2022/01/28 04:23:38;;;;;;;11.38;5.72;;;;;;;1.82;93.34;96814.38;5005633;28;20048;-49
2022/01/28 04:26:05;;;;;;;10.35;6.20;;;;;;;1.89;92.43;96810.69;5015088;28;20057;-46
2022/01/28 04:28:32;;;;;;;11.00;6.55;;;;;;;1.89;92.35;96824.03;5014883;28;20125;-51
2022/01/28 04:30:59;;;;;;;10.02;5.75;;;;;;;1.87;92.67;96816.25;5014772;28;20046;-48
2022/01/28 04:33:28;;;;;;;13.00;6.05;;;;;;;1.86;93.06;96822.66;5013803;28;20070;-47
2022/01/28 04:35:56;;;;;;;10.30;6.03;;;;;;;1.76;93.25;96833.25;5014726;28;20398;-49
2022/01/28 04:38:50;;;;;;;10.75;6.10;;;;;;;1.72;93.95;96846.28;5014417;28;20045;-50
2022/01/28 04:44:15;;;;;;;12.10;6.65;;;;;;;1.80;93.68;96842.38;4992319;28;20056;-48
2022/01/28 04:46:59;;;;;;;9.32;5.40;;;;;;;1.60;94.82;96845.66;4995500;28;20074;-47
2022/01/28 05:10:59;;;;;;;10.82;6.00;;;;;;;1.68;93.11;96842.50;5013511;28;20561;-50
2022/01/28 05:26:38;;;;;;;10.38;5.80;;;;;;;1.56;93.87;96829.34;5014149;28;20414;-46
2022/01/28 05:29:05;;;;;;;9.35;4.97;;;;;;;1.38;93.50;96824.38;5007337;28;20656;-45
2022/01/28 05:31:33;;;;;;;12.80;6.72;;;;;;;1.63;92.70;96831.81;5012513;28;20120;-48
2022/01/28 05:34:00;;;;;;;10.32;5.43;;;;;;;1.58;92.95;96837.09;5013227;28;20046;-48
2022/01/28 05:36:27;;;;;;;9.77;6.18;;;;;;;1.59;92.91;96846.69;5013755;28;20136;-48
2022/01/28 05:38:55;;;;;;;8.80;5.10;;;;;;;1.44;94.30;96849.22;4994361;28;20495;-47
2022/01/28 05:41:22;;;;;;;9.85;5.38;;;;;;;1.66;92.77;96859.81;5012558;28;20069;-45
2022/01/28 05:43:49;;;;;;;11.13;6.15;;;;;;;1.53;93.61;96861.06;5013435;28;20423;-45
2022/01/28 05:46:18;;;;;;;9.85;5.97;;;;;;;1.53;93.46;96859.19;4995658;28;20049;-47
2022/01/28 05:48:45;;;;;;;10.30;6.65;;;;;;;1.39;94.43;96857.97;5013192;28;20065;-46
2022/01/28 05:51:12;;;;;;;10.18;5.45;;;;;;;1.36;94.55;96879.78;5010928;28;20046;-47
2022/01/28 05:53:39;;;;;;;10.20;5.30;;;;;;;1.23;96.26;96880.97;4991311;28;20128;-46
2022/01/28 05:56:06;;;;;;;10.55;6.18;;;;;;;1.34;95.27;96873.91;5014903;28;20073;-46
2022/01/28 05:58:33;;;;;;;10.15;6.25;;;;;;;1.09;97.38;96885.09;5015614;28;20153;-48
2022/01/28 06:01:00;;;;;;;11.70;6.18;;;;;;;1.08;97.59;96878.94;4994041;28;20055;-50
2022/01/28 06:03:28;;;;;;;12.05;5.97;;;;;;;1.19;97.49;96874.53;5015392;28;20077;-48
2022/01/28 06:05:55;;;;;;;14.15;6.35;;;;;;;0.82;99.68;96909.00;4999096;28;20056;-46
2022/01/28 06:08:22;;;;;;;9.07;5.50;;;;;;;0.90;99.54;96906.69;5015690;28;20054;-47
2022/01/28 06:10:49;;;;;;;11.18;5.05;;;;;;;0.89;99.29;96922.94;5012834;28;20050;-50
2022/01/28 06:13:16;;;;;;;11.50;5.88;;;;;;;0.86;99.30;96916.22;4998043;28;20045;-47
2022/01/28 06:15:44;;;;;;;10.43;5.47;;;;;;;1.22;98.32;96908.69;5015366;28;20042;-48
2022/01/28 06:18:12;;;;;;;9.50;6.00;;;;;;;1.17;97.33;96913.97;5013053;28;20117;-47
2022/01/28 06:20:39;;;;;;;10.93;6.32;;;;;;;1.22;95.82;96924.69;4998346;28;20125;-48
2022/01/28 06:23:12;;;;;;;9.80;5.93;;;;;;;1.28;95.26;96937.03;5013638;28;20053;-47
2022/01/28 06:25:39;;;;;;;10.75;6.25;;;;;;;1.33;95.05;96936.28;5016096;28;20083;-53
2022/01/28 06:28:06;;;;;;;11.10;5.68;;;;;;;1.26;95.05;96933.78;5015947;28;20057;-49
2022/01/28 06:30:33;;;;;;;10.18;5.10;;;;;;;1.18;94.53;96944.91;5013874;28;20398;-46
2022/01/28 06:33:00;;;;;;;9.90;5.32;;;;;;;1.19;95.00;96951.84;5015990;28;20133;-48
2022/01/28 06:35:27;;;;;;;8.90;5.60;;;;;;;1.35;93.32;96955.50;5015603;28;20045;-49
2022/01/28 06:37:54;;;;;;;9.13;5.22;;;;;;;1.23;93.08;96958.28;5012546;28;20049;-48
2022/01/28 06:40:21;;;;;;;9.65;5.30;;;;;;;1.31;93.18;96951.72;5005728;28;20033;-49
2022/01/28 06:42:48;;;;;;;9.20;5.22;;;;;;;1.40;92.85;96959.06;4994785;28;20058;-52
2022/01/28 06:45:15;;;;;;;10.25;5.78;;;;;;;1.45;92.68;96960.97;5011536;28;20048;-47
2022/01/28 06:47:42;;;;;;;9.02;5.35;;;;;;;1.50;91.96;96958.38;5015654;28;20046;-45
2022/01/28 06:50:10;;;;;;;11.15;5.60;;;;;;;1.47;91.87;96958.88;4999028;28;20125;-51
2022/01/28 06:52:38;;;;;;;9.50;5.07;;;;;;;1.51;91.51;96954.63;5016639;22;20961;-52
2022/01/28 06:55:06;;;;;;;8.98;5.45;;;;;;;1.53;91.44;96952.53;4988137;28;20086;-52
2022/01/28 06:57:33;;;;;;;9.25;5.38;;;;;;;1.58;91.17;96959.78;5008486;28;20057;-55
2022/01/28 07:00:01;;;;;;;10.18;5.30;;;;;;;1.56;91.78;96959.22;4992367;28;20046;-50
2022/01/28 07:02:28;;;;;;;8.75;5.78;;;;;;;1.49;91.64;96966.59;4973827;28;20070;-49
2022/01/28 07:04:55;;;;;;;12.13;5.53;;;;;;;1.42;92.41;96961.47;4973025;28;20420;-49
2022/01/28 07:07:24;;;;;;;9.32;5.38;;;;;;;1.37;92.74;96972.06;4974953;28;20144;-49
2022/01/28 07:09:52;;;;;;;7.75;4.32;;;;;;;1.33;92.30;96962.94;4989488;28;20054;-50
2022/01/28 07:12:20;;;;;;;10.93;6.05;;;;;;;1.48;92.21;96973.00;4988960;28;20122;-53
2022/01/28 07:14:49;;;;;;;8.75;5.43;;;;;;;1.34;93.35;96986.69;4995704;28;20077;-52
2022/01/28 07:17:16;;;;;;;9.73;5.38;;;;;;;1.40;93.25;96984.91;4991844;28;20069;-52
2022/01/28 07:19:43;;;;;;;9.15;5.25;;;;;;;1.00;95.25;96975.31;4979780;28;20046;-49
2022/01/28 07:22:10;;;;;;;11.18;5.80;;;;;;;0.64;99.22;96993.44;4989460;28;20046;-49
2022/01/28 07:24:37;;;;;;;9.60;5.82;;;;;;;0.64;99.77;97006.75;4989560;28;20077;-48
2022/01/28 07:27:05;;;;;;;10.20;5.47;;;;;;;0.58;99.45;97012.22;4974507;28;20057;-48
2022/01/28 07:29:36;;;;;;;11.25;5.60;;;;;;;0.36;100.00;97006.84;4974909;28;20042;-50
2022/01/28 07:32:03;;;;;;;9.98;5.07;;;;;;;0.47;100.00;97003.28;4990248;28;20060;-49
2022/01/28 07:34:30;;;;;;;12.27;6.28;;;;;;;0.44;100.00;97003.75;4991086;28;20056;-52
2022/01/28 07:36:57;;;;;;;10.95;5.97;;;;;;;0.49;100.00;97003.03;4991493;28;20053;-52
2022/01/28 07:39:24;;;;;;;10.93;6.32;;;;;;;0.43;100.00;97005.63;4991766;28;20052;-52
2022/01/28 07:41:51;;;;;;;11.20;6.72;;;;;;;0.59;99.38;96998.69;4990048;28;20046;-52
2022/01/28 07:44:18;;;;;;;13.80;6.82;;;;;;;0.63;99.70;97004.34;4973834;28;20038;-50
2022/01/28 07:46:46;;;;;;;13.90;7.68;;;;;;;0.74;98.79;96997.31;4974154;28;20048;-51
2022/01/28 07:49:15;;;;;;;12.43;7.38;;;;;;;0.81;98.99;96995.28;4990071;28;20062;-54
2022/01/28 07:51:43;;;;;;;14.35;7.20;;;;;;;0.63;100.00;96994.47;4990626;28;20050;-52
2022/01/28 07:54:10;;;;;;;15.38;7.75;;;;;;;0.97;98.39;96999.78;4973114;28;20073;-50
2022/01/28 07:56:37;;;;;;;13.32;7.20;;;;;;;0.85;98.93;97007.06;4991482;28;20070;-55
2022/01/28 07:59:04;;;;;;;13.82;7.55;;;;;;;0.95;98.37;97019.75;4995450;28;20046;-50
2022/01/28 08:01:31;;;;;;;15.32;7.60;;;;;;;1.02;98.34;97018.50;4981388;28;20049;-55
2022/01/28 08:03:58;;;;;;;13.93;6.93;;;;;;;1.07;97.38;97018.59;4978140;28;20042;-48
2022/01/28 08:06:26;;;;;;;13.75;7.10;;;;;;;0.82;98.92;97018.22;4994528;28;20053;-53
2022/01/28 08:08:53;;;;;;;14.05;6.60;;;;;;;1.04;98.05;97029.75;4994200;28;20507;-48
2022/01/28 08:11:20;;;;;;;12.15;5.78;;;;;;;0.97;97.54;97026.41;4991061;28;20451;-52
2022/01/28 08:13:47;;;;;;;11.68;6.28;;;;;;;0.92;98.51;97042.34;4995063;28;20508;-54
2022/01/28 08:16:14;;;;;;;13.55;6.43;;;;;;;0.97;98.00;97030.94;4994927;28;20054;-49
2022/01/28 08:18:41;;;;;;;13.07;6.53;;;;;;;1.20;96.40;97028.09;4989960;28;20543;-51
2022/01/28 08:21:08;;;;;;;11.73;6.80;;;;;;;1.23;95.83;97042.78;4988148;28;20088;-50
2022/01/28 08:23:36;;;;;;;11.25;6.43;;;;;;;1.27;96.30;97042.06;4958040;28;20077;-49
2022/01/28 08:26:03;;;;;;;11.43;6.22;;;;;;;1.23;95.85;97045.44;4989020;28;20046;-49
2022/01/28 08:28:30;;;;;;;10.57;6.15;;;;;;;1.22;96.76;97049.97;4994858;28;20074;-47
2022/01/28 08:30:59;;;;;;;11.63;6.35;;;;;;;1.21;96.34;97051.03;4994159;28;20453;-48
2022/01/28 08:33:26;;;;;;;12.20;5.93;;;;;;;1.13;96.41;97048.78;4975850;28;20085;-53
2022/01/28 08:35:55;;;;;;;13.90;5.80;;;;;;;1.23;95.93;97051.59;4987748;28;20141;-50
2022/01/28 08:38:28;;;;;;;11.15;5.65;;;;;;;1.32;95.32;97050.13;4995013;28;20042;-54
2022/01/28 08:40:57;;;;;;;10.23;6.25;;;;;;;1.19;94.66;97053.13;4991823;28;20060;-52
2022/01/28 08:43:24;;;;;;;9.38;5.00;;;;;;;1.10;95.40;97044.72;4975060;28;20055;-52
2022/01/28 08:45:51;;;;;;;12.63;5.65;;;;;;;1.16;95.62;97057.09;4986549;28;20129;-54
2022/01/28 08:48:18;;;;;;;10.55;5.07;;;;;;;1.34;93.91;97050.69;4994768;28;20422;-56
2022/01/28 08:50:46;;;;;;;10.00;5.80;;;;;;;1.35;93.20;97057.63;4984844;28;20051;-55
2022/01/28 08:53:13;;;;;;;11.95;5.53;;;;;;;1.38;92.83;97057.16;4974599;28;20081;-56
2022/01/28 08:55:40;;;;;;;7.95;5.07;;;;;;;1.19;94.05;97063.81;4983699;28;20042;-51
2022/01/28 08:58:09;;;;;;;11.77;5.47;;;;;;;1.26;93.30;97069.75;4977159;28;20058;-55
2022/01/28 09:00:36;;;;;;;10.07;5.10;;;;;;;1.47;91.95;97067.41;4993129;28;20034;-53
2022/01/28 09:03:04;;;;;;;9.98;5.35;;;;;;;1.52;91.48;97068.25;4957725;28;20046;-57
2022/01/28 09:05:33;;;;;;;14.10;5.45;;;;;;;1.45;92.56;97067.63;4981910;28;20225;-54
2022/01/28 09:08:07;;;;;;;10.35;5.40;;;;;;;1.55;91.99;97078.44;4993974;28;20065;-52
2022/01/28 09:10:37;;;;;;;8.68;5.03;;;;;;;1.61;91.99;97066.78;4967453;28;20097;-53
2022/01/28 09:15:35;;;;;;;9.10;4.70;;;;;;;1.58;92.84;97085.16;4993878;28;20042;-54
2022/01/28 09:18:03;;;;;;;11.13;4.55;;;;;;;1.65;91.89;97064.44;4958216;28;20063;-50
2022/01/28 09:20:31;;;;;;;13.00;5.13;;;;;;;1.44;93.48;97068.69;4981100;28;20038;-51
2022/01/28 09:23:00;;;;;;;10.80;5.82;;;;;;;1.67;92.60;97069.53;4972382;28;20072;-54
2022/01/28 09:25:27;;;;;;;11.70;5.47;;;;;;;1.67;91.83;97070.34;4980442;28;20072;-54
2022/01/28 09:27:54;;;;;;;13.00;4.78;;;;;;;1.68;91.44;97076.47;4994089;28;20042;-52
2022/01/28 09:30:22;;;;;;;9.50;4.90;;;;;;;1.80;90.92;97069.97;4974904;28;20064;-55
2022/01/28 09:32:49;;;;;;;7.72;5.30;;;;;;;1.62;91.32;97079.06;4956908;28;20491;-53
2022/01/28 09:35:16;;;;;;;12.07;5.18;;;;;;;1.63;90.98;97075.34;4977429;28;20049;-56
2022/01/28 09:37:43;;;;;;;7.78;4.13;;;;;;;1.81;89.58;97086.78;4993940;28;20128;-54
2022/01/28 09:40:11;;;;;;;9.40;3.95;;;;;;;1.77;89.88;97088.34;4978202;28;20287;-53
2022/01/28 09:42:41;;;;;;;8.65;4.60;;;;;;;1.89;88.58;97091.69;4974079;28;20126;-51
2022/01/28 09:45:09;;;;;;;8.52;3.42;;;;;;;1.51;89.00;97081.84;4979685;28;20161;-53
2022/01/28 09:47:37;;;;;;;7.35;3.20;;;;;;;1.57;89.15;97089.69;4977896;28;20449;-53
2022/01/28 09:50:06;;;;;;;7.43;4.22;;;;;;;1.70;89.36;97093.06;4978412;28;20060;-54
2022/01/28 09:52:34;;;;;;;6.97;3.78;;;;;;;1.75;89.12;97101.91;4987424;28;20041;-54
2022/01/28 09:55:02;;;;;;;8.98;3.88;;;;;;;1.59;89.78;97097.41;4976924;28;20045;-54
2022/01/28 09:57:29;;;;;;;9.73;4.80;;;;;;;1.83;88.18;97098.81;4993443;28;20132;-53
2022/01/28 09:59:56;;;;;;;7.85;4.13;;;;;;;1.87;87.32;97101.81;4993346;28;20046;-52
2022/01/28 10:02:46;;;;;;;6.45;3.85;;;;;;;1.63;86.62;97094.03;4983156;28;20047;-53
2022/01/28 10:05:23;;;;;;;9.93;3.88;;;;;;;1.66;87.21;97090.06;4978328;28;20058;-53
2022/01/28 10:08:02;;;;;;;10.80;3.90;;;;;;;1.61;88.04;97093.47;4993281;28;20073;-52
2022/01/28 10:10:54;;;;;;;7.28;3.40;;;;;;;1.84;86.45;97104.97;4972624;28;20095;-55
2022/01/28 10:13:38;;;;;;;12.15;3.90;;;;;;;1.87;86.60;97093.78;4973240;28;20062;-55
2022/01/28 10:16:14;;;;;;;6.18;3.35;;;;;;;1.72;86.15;97091.72;4984890;28;20054;-53
2022/01/28 10:18:43;;;;;;;10.10;4.05;;;;;;;1.93;85.83;97106.16;4992377;28;20504;-53
2022/01/28 10:21:30;;;;;;;8.40;4.13;;;;;;;1.98;85.81;97098.22;4982424;28;20130;-51
2022/01/28 10:24:18;;;;;;;6.85;3.60;;;;;;;2.01;85.67;97096.91;4972960;28;20129;-51
2022/01/28 10:26:47;;;;;;;9.32;3.63;;;;;;;1.69;85.18;97083.41;4991135;28;20046;-51
2022/01/28 10:29:19;;;;;;;6.88;3.75;;;;;;;1.85;85.79;97107.41;4992710;28;20488;-52
2022/01/28 10:31:49;;;;;;;9.40;3.50;;;;;;;1.62;85.95;97105.75;4991813;28;20046;-53
2022/01/28 10:34:18;;;;;;;8.52;3.70;;;;;;;1.64;86.84;97100.97;4973379;28;20519;-53
2022/01/28 10:36:47;;;;;;;9.77;3.97;;;;;;;1.86;85.69;97101.00;4990785;28;20047;-53
2022/01/28 10:39:17;;;;;;;8.15;4.38;;;;;;;1.87;86.12;97099.13;4992866;28;20125;-55
2022/01/28 10:41:52;;;;;;;11.35;4.85;;;;;;;1.95;85.67;97109.41;4972298;28;20157;-53
2022/01/28 10:44:19;;;;;;;8.25;3.63;;;;;;;1.95;85.55;97104.06;4992495;28;20053;-56
2022/01/28 10:46:58;;;;;;;6.38;3.50;;;;;;;1.98;86.06;97100.06;4992403;28;20046;-53
2022/01/28 10:49:35;;;;;;;9.13;4.10;;;;;;;1.98;84.52;97092.06;4988333;28;20137;-54
2022/01/28 10:52:08;;;;;;;7.53;3.80;;;;;;;2.14;83.23;97085.84;4990217;28;20455;-54
2022/01/28 10:54:37;;;;;;;7.88;3.38;;;;;;;2.09;83.35;97089.25;4972729;28;20043;-52
2022/01/28 10:57:09;;;;;;;5.85;2.83;;;;;;;2.20;82.77;97106.19;4991943;28;20101;-52
2022/01/28 10:59:40;;;;;;;5.38;2.97;;;;;;;2.46;81.90;97109.97;4974391;28;20076;-54
2022/01/28 11:02:07;;;;;;;6.20;2.97;;;;;;;2.53;80.43;97105.22;4991345;28;20035;-51
2022/01/28 11:04:36;;;;;;;9.38;2.72;;;;;;;2.37;78.74;97100.78;4991993;28;20049;-50
2022/01/28 11:07:04;;;;;;;5.70;2.67;;;;;;;2.33;80.29;97094.31;4992271;28;20499;-51
2022/01/28 11:09:32;;;;;;;6.95;3.15;;;;;;;2.65;79.91;97113.09;4991607;28;20057;-52
2022/01/28 11:12:00;;;;;;;5.93;2.90;;;;;;;2.56;79.54;97115.41;4991420;28;20096;-53
2022/01/28 11:14:27;;;;;;;11.00;3.20;;;;;;;2.55;79.10;97099.63;4991826;28;20050;-55
2022/01/28 11:16:55;;;;;;;6.65;2.20;;;;;;;2.35;78.75;97092.22;4992109;28;20046;-53
2022/01/28 11:19:24;;;;;;;8.98;2.60;;;;;;;2.56;78.82;97103.91;4984420;28;20508;-54
2022/01/28 11:22:20;;;;;;;7.30;2.58;;;;;;;2.47;78.19;97111.59;4988261;28;20646;-56
2022/01/28 11:25:13;;;;;;;4.30;2.45;;;;;;;2.51;78.76;97104.69;4972897;28;20043;-53
2022/01/28 11:27:41;;;;;;;4.43;2.00;;;;;;;2.47;76.92;97092.91;4972726;28;20054;-52
2022/01/28 11:30:28;;;;;;;5.53;2.38;;;;;;;2.60;76.30;97098.88;4974051;28;20489;-53
2022/01/28 11:33:00;;;;;;;4.07;1.90;;;;;;;2.50;76.55;97100.41;4974690;28;20066;-54
2022/01/28 11:35:53;;;;;;;3.85;1.83;;;;;;;2.29;77.22;97094.03;4974504;28;20066;-53
2022/01/28 11:38:29;;;;;;;5.68;1.88;;;;;;;2.33;78.17;97110.34;4984205;28;20551;-52
2022/01/28 11:40:59;;;;;;;5.65;2.00;;;;;;;2.54;76.38;97101.50;4982989;28;20044;-52
2022/01/28 11:43:29;;;;;;;5.63;2.10;;;;;;;2.53;76.20;97110.56;4991663;28;20046;-54
2022/01/28 11:46:16;;;;;;;8.63;2.45;;;;;;;2.37;76.98;97099.97;4991951;28;20054;-52
2022/01/28 11:48:52;;;;;;;5.80;1.77;;;;;;;2.58;76.80;97101.81;4991175;28;20051;-53
2022/01/28 11:51:20;;;;;;;3.42;1.48;;;;;;;2.32;76.37;97098.88;4971632;28;20055;-53
2022/01/28 11:53:55;;;;;;;5.75;2.47;;;;;;;2.51;76.55;97101.22;4975469;28;20104;-51
2022/01/28 11:56:24;;;;;;;9.10;2.33;;;;;;;2.54;76.32;97090.03;4991739;28;20043;-53
2022/01/28 11:58:59;;;;;;;5.93;2.40;;;;;;;2.63;76.02;97093.03;4991879;28;20397;-52
2022/01/28 12:01:35;;;;;;;7.90;2.10;;;;;;;2.48;75.86;97096.38;4988618;28;20093;-55
2022/01/28 12:04:29;;;;;;;4.85;2.30;;;;;;;2.60;75.58;97096.19;4977407;28;20392;-53
2022/01/28 12:07:01;;;;;;;5.95;2.05;;;;;;;2.69;75.89;97105.38;4991995;28;20046;-55
2022/01/28 12:09:30;;;;;;;5.43;2.00;;;;;;;2.63;75.03;97099.16;4991271;28;20042;-56
2022/01/28 12:12:01;;;;;;;7.38;2.05;;;;;;;2.80;75.43;97104.44;4980787;28;20053;-55
2022/01/28 12:15:01;;;;;;;7.00;2.53;;;;;;;2.73;75.72;97109.97;4988453;28;20143;-55
2022/01/28 12:17:32;;;;;;;6.78;2.53;;;;;;;2.88;75.83;97101.28;4991451;28;20451;-53
2022/01/28 12:20:35;;;;;;;5.57;2.00;;;;;;;2.72;76.39;97096.84;4984630;28;20047;-53
2022/01/28 12:23:11;;;;;;;10.07;2.43;;;;;;;2.70;77.02;97088.31;4972598;28;20053;-57
2022/01/28 12:25:41;;;;;;;9.48;2.83;;;;;;;2.58;77.50;97091.13;4991657;28;20138;-54
2022/01/28 12:28:17;;;;;;;6.05;2.90;;;;;;;2.73;77.56;97098.47;4974012;28;20388;-54
2022/01/28 12:30:45;;;;;;;7.25;2.35;;;;;;;2.60;75.82;97096.19;4991725;28;20090;-54
2022/01/28 12:33:14;;;;;;;4.18;2.30;;;;;;;2.68;76.56;97098.44;4977241;28;20042;-57
2022/01/28 12:35:42;;;;;;;4.80;2.22;;;;;;;2.63;75.85;97098.38;4991143;28;20061;-57
2022/01/28 12:38:11;;;;;;;7.15;2.80;;;;;;;2.50;76.95;97100.41;4973890;28;20045;-55
2022/01/28 12:40:46;;;;;;;5.50;2.20;;;;;;;2.35;77.48;97108.25;4966250;28;20472;-55
2022/01/28 12:43:18;;;;;;;4.90;1.92;;;;;;;2.28;79.60;97104.97;4978421;28;20046;-57
2022/01/28 12:46:05;;;;;;;8.90;2.42;;;;;;;2.27;78.82;97104.13;4977751;28;20416;-52
2022/01/28 12:48:33;;;;;;;6.10;2.33;;;;;;;2.33;79.14;97111.16;4989454;28;20049;-54
2022/01/28 12:51:02;;;;;;;5.47;2.03;;;;;;;2.46;79.31;97109.97;4974226;28;20420;-53
2022/01/28 12:53:39;;;;;;;6.20;2.25;;;;;;;2.22;79.21;97120.13;5041538;22;20038;-49
2022/01/28 12:56:07;;;;;;;7.38;2.45;;;;;;;2.38;78.59;97115.75;5034306;28;20053;-51
2022/01/28 12:58:48;;;;;;;4.28;2.28;;;;;;;2.33;78.92;97121.03;5034129;28;20041;-50
2022/01/28 13:01:20;;;;;;;7.25;2.25;;;;;;;2.29;77.26;97119.94;5030005;28;20042;-48
2022/01/28 13:04:02;;;;;;;3.88;2.00;;;;;;;2.55;77.81;97113.78;4985130;28;20054;-50
2022/01/28 13:09:09;;;;;;;4.10;2.15;;;;;;;2.54;77.26;97106.84;5014527;28;20436;-50
2022/01/28 13:11:43;;;;;;;6.97;2.97;;;;;;;2.53;78.35;97109.75;5013445;28;20041;-47
2022/01/28 13:14:13;;;;;;;5.47;3.25;;;;;;;2.50;78.64;97110.25;5013702;28;20046;-47
2022/01/28 13:16:43;;;;;;;7.38;2.20;;;;;;;2.36;77.51;97107.19;5014336;28;20046;-51
2022/01/28 13:19:13;;;;;;;6.32;2.10;;;;;;;2.05;78.20;97125.53;5013513;28;20487;-48
2022/01/28 13:21:45;;;;;;;2.83;1.40;;;;;;;1.86;78.20;97111.69;4996167;28;20496;-48